Погода Холопьевона неделю

Смоленская область, Россия

13 - 19 июля
  • 13июля
    Сегодня
    +18°
    +29°
    Практически безоблачно
    ВремяПогодаТемператураВлажностьДавлениеВетер, м/сВероятность осадков
    00:00Практически безоблачно+18°C68 %746 мм0.7 м/с13 %
    03:00Ясно и безоблачно+17°C74 %746 мм0.0 м/с18 %
    06:00Ясно и безоблачно+17°C78 %746 мм0.0 м/с2 %
    09:00Пасмурно, сплошная облачность+24°C80 %746 мм0.7 м/с16 %
    12:00Практически безоблачно+25°C70 %746 мм1.1 м/с20 %
    15:00Практически безоблачно+28°C59 %745 мм1.5 м/с8 %
    18:00Ясно и безоблачно+29°C55 %744 мм0.8 м/с4 %
    21:00Практически безоблачно+24°C68 %744 мм0.0 м/с2 %
  • 14июля
    Воскресенье
    +16°
    +30°
    Ясно и безоблачно
    ВремяПогодаТемператураВлажностьДавлениеВетер, м/сВероятность осадков
    00:00Облачно с прояснениями+19°C79 %744 мм0.0 м/с4 %
    03:00Облачно с прояснениями+19°C83 %744 мм0.1 м/с19 %
    06:00Практически безоблачно+20°C88 %744 мм0.6 м/с6 %
    09:00Ясно и безоблачно+25°C77 %744 мм2.1 м/с31 %
    12:00Практически безоблачно+28°C64 %744 мм2.5 м/с13 %
    15:00Ясно и безоблачно+29°C58 %744 мм3.1 м/с33 %
    18:00Практически безоблачно+29°C58 %744 мм2.7 м/с18 %
    21:00Ясно и безоблачно+24°C74 %744 мм0.6 м/с8 %
  • 15июля
    Понедельник
    +16°
    +29°
    Небольшая облачность
    ВремяПогодаТемператураВлажностьДавлениеВетер, м/сВероятность осадков
    00:00Ясно и безоблачно+18°C87 %745 мм0.2 м/с2 %
    03:00Небольшая облачность+18°C95 %745 мм0.3 м/с2 %
    06:00Ясно и безоблачно+18°C96 %746 мм0.0 м/с2 %
    09:00Ясно и безоблачно+25°C73 %746 мм0.7 м/с1 %
    12:00Практически безоблачно+27°C52 %746 мм0.4 м/с3 %
    15:00Небольшая облачность+28°C42 %746 мм0.2 м/с2 %
    18:00Облачно с прояснениями+28°C40 %745 мм0.5 м/с10 %
    21:00Облачно с прояснениями+23°C57 %745 мм0.3 м/с13 %
  • 16июля
    Вторник
    +15°
    +29°
    Практически безоблачно
    ВремяПогодаТемператураВлажностьДавлениеВетер, м/сВероятность осадков
    00:00Облачно с прояснениями+19°C70 %745 мм0.0 м/с15 %
    03:00Ясно и безоблачно+18°C79 %745 мм0.0 м/с6 %
    06:00Ясно и безоблачно+19°C86 %745 мм0.0 м/с11 %
    09:00Ясно и безоблачно+26°C68 %746 мм1.1 м/с24 %
    12:00Практически безоблачно+28°C58 %746 мм2.5 м/с38 %
    15:00Практически безоблачно+30°C50 %746 мм2.5 м/с27 %
    18:00Облачно с прояснениями+29°C53 %747 мм2.0 м/с19 %
    21:00Ясно и безоблачно+24°C68 %747 мм0.6 м/с3 %
  • 17июля
    Среда
    +17°
    +30°
    Практически безоблачно
    ВремяПогодаТемператураВлажностьДавлениеВетер, м/сВероятность осадков
    00:00Ясно и безоблачно+19°C77 %747 мм0.3 м/с2 %
    03:00Ясно и безоблачно+17°C91 %748 мм0.1 м/с2 %
    06:00Ясно и безоблачно+17°C87 %748 мм0.4 м/с2 %
    09:00Ясно и безоблачно+24°C63 %748 мм1.2 м/с2 %
    12:00Небольшая облачность+29°C48 %748 мм0.3 м/с11 %
    15:00Практически безоблачно+30°C39 %747 мм0.5 м/с7 %
    18:00Небольшая облачность+30°C37 %746 мм0.0 м/с6 %
    21:00Небольшая облачность+25°C61 %746 мм0.6 м/с5 %
Мы используем cookies
Соглашаюсь